sensor_id;sensor_type;location;lat;lon;timestamp;P1;durP1;ratioP1;P2;durP2;ratioP2
43118;SDS011;28729;49.838;8.650;2023-04-01T00:01:28;0.10;;;0.10;;
43118;SDS011;28729;49.838;8.650;2023-04-01T00:05:29;0.10;;;0.10;;
43118;SDS011;28729;49.838;8.650;2023-04-01T00:09:32;0.40;;;0.40;;
43118;SDS011;28729;49.838;8.650;2023-04-01T00:13:33;0.10;;;0.10;;
43118;SDS011;28729;49.838;8.650;2023-04-01T00:17:35;0.10;;;0.10;;
43118;SDS011;28729;49.838;8.650;2023-04-01T00:21:38;0.77;;;0.73;;
43118;SDS011;28729;49.838;8.650;2023-04-01T00:25:39;0.10;;;0.10;;
43118;SDS011;28729;49.838;8.650;2023-04-01T00:33:51;0.10;;;0.10;;
43118;SDS011;28729;49.838;8.650;2023-04-01T00:41:54;0.10;;;0.10;;
43118;SDS011;28729;49.838;8.650;2023-04-01T00:45:58;0.10;;;0.10;;
43118;SDS011;28729;49.838;8.650;2023-04-01T00:50:00;0.10;;;0.10;;
43118;SDS011;28729;49.838;8.650;2023-04-01T00:54:01;0.10;;;0.10;;
43118;SDS011;28729;49.838;8.650;2023-04-01T00:58:05;0.57;;;0.57;;
43118;SDS011;28729;49.838;8.650;2023-04-01T01:02:13;0.10;;;0.10;;
43118;SDS011;28729;49.838;8.650;2023-04-01T01:10:36;0.10;;;0.10;;
43118;SDS011;28729;49.838;8.650;2023-04-01T01:19:02;0.25;;;0.25;;
43118;SDS011;28729;49.838;8.650;2023-04-01T01:27:57;2.25;;;0.75;;
43118;SDS011;28729;49.838;8.650;2023-04-01T01:36:17;5.82;;;1.08;;
43118;SDS011;28729;49.838;8.650;2023-04-01T01:40:22;2.80;;;0.80;;
43118;SDS011;28729;49.838;8.650;2023-04-01T01:44:28;6.80;;;1.15;;
43118;SDS011;28729;49.838;8.650;2023-04-01T01:48:31;2.60;;;0.80;;
43118;SDS011;28729;49.838;8.650;2023-04-01T01:52:35;2.85;;;1.20;;
43118;SDS011;28729;49.838;8.650;2023-04-01T01:56:38;5.10;;;0.80;;
43118;SDS011;28729;49.838;8.650;2023-04-01T02:00:41;4.30;;;0.90;;
43118;SDS011;28729;49.838;8.650;2023-04-01T02:04:46;4.25;;;1.10;;
43118;SDS011;28729;49.838;8.650;2023-04-01T02:09:02;2.27;;;0.70;;
43118;SDS011;28729;49.838;8.650;2023-04-01T02:13:13;4.30;;;0.57;;
43118;SDS011;28729;49.838;8.650;2023-04-01T02:17:25;3.28;;;0.73;;
43118;SDS011;28729;49.838;8.650;2023-04-01T02:21:30;4.15;;;1.10;;
43118;SDS011;28729;49.838;8.650;2023-04-01T02:25:34;3.13;;;0.95;;
43118;SDS011;28729;49.838;8.650;2023-04-01T02:29:37;4.75;;;1.15;;
43118;SDS011;28729;49.838;8.650;2023-04-01T02:33:42;3.60;;;1.05;;
43118;SDS011;28729;49.838;8.650;2023-04-01T02:37:45;1.50;;;0.63;;
43118;SDS011;28729;49.838;8.650;2023-04-01T02:41:50;5.38;;;1.00;;
43118;SDS011;28729;49.838;8.650;2023-04-01T02:45:51;2.45;;;0.85;;
43118;SDS011;28729;49.838;8.650;2023-04-01T02:49:53;6.33;;;1.70;;
43118;SDS011;28729;49.838;8.650;2023-04-01T02:54:00;5.65;;;1.17;;
43118;SDS011;28729;49.838;8.650;2023-04-01T02:58:02;2.03;;;0.80;;
43118;SDS011;28729;49.838;8.650;2023-04-01T03:02:05;3.38;;;0.90;;
43118;SDS011;28729;49.838;8.650;2023-04-01T03:06:08;1.75;;;0.90;;
43118;SDS011;28729;49.838;8.650;2023-04-01T03:10:13;2.92;;;0.93;;
43118;SDS011;28729;49.838;8.650;2023-04-01T03:14:14;1.90;;;0.75;;
43118;SDS011;28729;49.838;8.650;2023-04-01T03:18:16;7.10;;;0.93;;
43118;SDS011;28729;49.838;8.650;2023-04-01T03:22:18;6.93;;;1.20;;
43118;SDS011;28729;49.838;8.650;2023-04-01T03:26:22;3.30;;;0.80;;
43118;SDS011;28729;49.838;8.650;2023-04-01T03:30:24;5.10;;;0.90;;
43118;SDS011;28729;49.838;8.650;2023-04-01T03:34:26;5.07;;;0.80;;
43118;SDS011;28729;49.838;8.650;2023-04-01T03:38:28;3.72;;;0.90;;
43118;SDS011;28729;49.838;8.650;2023-04-01T03:42:30;2.50;;;1.02;;
43118;SDS011;28729;49.838;8.650;2023-04-01T03:50:34;7.97;;;0.70;;
43118;SDS011;28729;49.838;8.650;2023-04-01T03:54:36;1.63;;;0.60;;
43118;SDS011;28729;49.838;8.650;2023-04-01T03:58:39;4.47;;;0.80;;
43118;SDS011;28729;49.838;8.650;2023-04-01T04:02:42;5.30;;;1.35;;
43118;SDS011;28729;49.838;8.650;2023-04-01T04:06:46;4.05;;;0.60;;
43118;SDS011;28729;49.838;8.650;2023-04-01T04:10:54;3.17;;;1.02;;
43118;SDS011;28729;49.838;8.650;2023-04-01T04:14:57;6.60;;;0.68;;
43118;SDS011;28729;49.838;8.650;2023-04-01T04:18:59;2.63;;;0.77;;
43118;SDS011;28729;49.838;8.650;2023-04-01T04:23:01;4.97;;;1.45;;
43118;SDS011;28729;49.838;8.650;2023-04-01T04:27:03;3.17;;;0.80;;
43118;SDS011;28729;49.838;8.650;2023-04-01T04:35:10;5.05;;;1.08;;
43118;SDS011;28729;49.838;8.650;2023-04-01T04:39:11;3.10;;;0.80;;
43118;SDS011;28729;49.838;8.650;2023-04-01T04:43:15;5.10;;;0.80;;
43118;SDS011;28729;49.838;8.650;2023-04-01T04:47:18;2.97;;;0.70;;
43118;SDS011;28729;49.838;8.650;2023-04-01T04:51:20;1.45;;;0.60;;
43118;SDS011;28729;49.838;8.650;2023-04-01T04:55:22;5.77;;;1.47;;
43118;SDS011;28729;49.838;8.650;2023-04-01T04:59:37;4.75;;;0.80;;
43118;SDS011;28729;49.838;8.650;2023-04-01T05:03:46;2.78;;;0.70;;
43118;SDS011;28729;49.838;8.650;2023-04-01T05:07:48;3.20;;;0.87;;
43118;SDS011;28729;49.838;8.650;2023-04-01T05:11:50;4.10;;;0.50;;
43118;SDS011;28729;49.838;8.650;2023-04-01T05:15:53;1.20;;;0.60;;
43118;SDS011;28729;49.838;8.650;2023-04-01T05:19:55;3.38;;;0.60;;
43118;SDS011;28729;49.838;8.650;2023-04-01T05:23:57;4.03;;;0.73;;
43118;SDS011;28729;49.838;8.650;2023-04-01T05:27:59;3.53;;;0.57;;
43118;SDS011;28729;49.838;8.650;2023-04-01T05:32:01;1.77;;;0.63;;
43118;SDS011;28729;49.838;8.650;2023-04-01T05:36:13;3.22;;;0.82;;
43118;SDS011;28729;49.838;8.650;2023-04-01T05:40:16;2.60;;;0.95;;
43118;SDS011;28729;49.838;8.650;2023-04-01T05:44:19;1.60;;;0.60;;
43118;SDS011;28729;49.838;8.650;2023-04-01T05:48:43;2.00;;;0.95;;
43118;SDS011;28729;49.838;8.650;2023-04-01T05:52:44;1.27;;;0.47;;
43118;SDS011;28729;49.838;8.650;2023-04-01T05:56:46;3.83;;;0.60;;
43118;SDS011;28729;49.838;8.650;2023-04-01T06:00:49;1.02;;;0.50;;
43118;SDS011;28729;49.838;8.650;2023-04-01T06:05:19;1.63;;;0.45;;
43118;SDS011;28729;49.838;8.650;2023-04-01T06:09:24;2.53;;;0.65;;
43118;SDS011;28729;49.838;8.650;2023-04-01T06:27:06;2.67;;;0.60;;
43118;SDS011;28729;49.838;8.650;2023-04-01T06:31:38;1.65;;;0.30;;
43118;SDS011;28729;49.838;8.650;2023-04-01T06:54:13;1.08;;;0.50;;
43118;SDS011;28729;49.838;8.650;2023-04-01T06:58:40;0.20;;;0.20;;
43118;SDS011;28729;49.838;8.650;2023-04-01T07:02:53;2.13;;;0.45;;
43118;SDS011;28729;49.838;8.650;2023-04-01T07:07:19;0.65;;;0.47;;
43118;SDS011;28729;49.838;8.650;2023-04-01T07:11:34;1.73;;;0.47;;
43118;SDS011;28729;49.838;8.650;2023-04-01T07:16:27;4.28;;;0.43;;
43118;SDS011;28729;49.838;8.650;2023-04-01T07:20:53;0.50;;;0.30;;
43118;SDS011;28729;49.838;8.650;2023-04-01T07:24:57;2.30;;;0.50;;
43118;SDS011;28729;49.838;8.650;2023-04-01T07:29:11;1.63;;;0.30;;
43118;SDS011;28729;49.838;8.650;2023-04-01T07:33:23;1.83;;;0.32;;
43118;SDS011;28729;49.838;8.650;2023-04-01T07:54:32;1.80;;;0.52;;
43118;SDS011;28729;49.838;8.650;2023-04-01T08:07:43;1.17;;;0.30;;
43118;SDS011;28729;49.838;8.650;2023-04-01T08:16:47;1.55;;;0.30;;
43118;SDS011;28729;49.838;8.650;2023-04-01T08:21:12;0.20;;;0.20;;
43118;SDS011;28729;49.838;8.650;2023-04-01T08:25:21;1.50;;;0.43;;
43118;SDS011;28729;49.838;8.650;2023-04-01T08:29:34;1.95;;;0.35;;
43118;SDS011;28729;49.838;8.650;2023-04-01T08:33:44;3.50;;;0.43;;
43118;SDS011;28729;49.838;8.650;2023-04-01T08:37:49;1.45;;;0.50;;
43118;SDS011;28729;49.838;8.650;2023-04-01T09:04:35;1.63;;;0.60;;
43118;SDS011;28729;49.838;8.650;2023-04-01T09:13:45;1.25;;;0.40;;
43118;SDS011;28729;49.838;8.650;2023-04-01T09:18:04;1.13;;;0.50;;
43118;SDS011;28729;49.838;8.650;2023-04-01T09:22:57;1.25;;;0.40;;
43118;SDS011;28729;49.838;8.650;2023-04-01T09:27:26;2.43;;;0.67;;
43118;SDS011;28729;49.838;8.650;2023-04-01T09:40:53;0.77;;;0.40;;
43118;SDS011;28729;49.838;8.650;2023-04-01T09:53:49;2.45;;;0.90;;
43118;SDS011;28729;49.838;8.650;2023-04-01T09:58:19;0.98;;;0.60;;
43118;SDS011;28729;49.838;8.650;2023-04-01T10:12:08;3.75;;;0.65;;
43118;SDS011;28729;49.838;8.650;2023-04-01T10:34:27;0.77;;;0.40;;
43118;SDS011;28729;49.838;8.650;2023-04-01T10:38:41;1.02;;;0.70;;
43118;SDS011;28729;49.838;8.650;2023-04-01T10:57:21;1.95;;;0.50;;
43118;SDS011;28729;49.838;8.650;2023-04-01T11:15:37;2.03;;;0.60;;
43118;SDS011;28729;49.838;8.650;2023-04-01T11:20:11;1.48;;;0.60;;
43118;SDS011;28729;49.838;8.650;2023-04-01T11:29:22;3.05;;;0.50;;
43118;SDS011;28729;49.838;8.650;2023-04-01T11:33:42;0.90;;;0.90;;
43118;SDS011;28729;49.838;8.650;2023-04-01T11:37:55;1.40;;;0.43;;
43118;SDS011;28729;49.838;8.650;2023-04-01T11:42:34;0.98;;;0.82;;
43118;SDS011;28729;49.838;8.650;2023-04-01T11:47:19;1.02;;;0.63;;
43118;SDS011;28729;49.838;8.650;2023-04-01T11:51:47;3.40;;;0.90;;
43118;SDS011;28729;49.838;8.650;2023-04-01T12:00:34;0.65;;;0.55;;
43118;SDS011;28729;49.838;8.650;2023-04-01T12:13:42;1.20;;;0.70;;
43118;SDS011;28729;49.838;8.650;2023-04-01T12:18:05;0.85;;;0.65;;
43118;SDS011;28729;49.838;8.650;2023-04-01T12:22:32;1.27;;;0.70;;
43118;SDS011;28729;49.838;8.650;2023-04-01T12:27:02;1.63;;;0.80;;
43118;SDS011;28729;49.838;8.650;2023-04-01T12:48:40;2.08;;;0.80;;
43118;SDS011;28729;49.838;8.650;2023-04-01T12:52:51;1.27;;;0.80;;
43118;SDS011;28729;49.838;8.650;2023-04-01T13:19:14;1.77;;;0.90;;
43118;SDS011;28729;49.838;8.650;2023-04-01T13:23:30;3.58;;;0.80;;
43118;SDS011;28729;49.838;8.650;2023-04-01T13:27:43;2.90;;;1.00;;
43118;SDS011;28729;49.838;8.650;2023-04-01T13:36:20;2.53;;;0.70;;
43118;SDS011;28729;49.838;8.650;2023-04-01T13:49:19;1.38;;;0.70;;
43118;SDS011;28729;49.838;8.650;2023-04-01T13:53:27;1.63;;;0.80;;
43118;SDS011;28729;49.838;8.650;2023-04-01T14:02:20;2.13;;;0.52;;
43118;SDS011;28729;49.838;8.650;2023-04-01T14:06:38;1.15;;;0.60;;
43118;SDS011;28729;49.838;8.650;2023-04-01T14:23:39;1.03;;;0.70;;
43118;SDS011;28729;49.838;8.650;2023-04-01T14:27:55;1.23;;;0.55;;
43118;SDS011;28729;49.838;8.650;2023-04-01T14:36:51;0.68;;;0.60;;
43118;SDS011;28729;49.838;8.650;2023-04-01T14:40:56;2.28;;;0.63;;
43118;SDS011;28729;49.838;8.650;2023-04-01T14:49:36;1.60;;;0.57;;
43118;SDS011;28729;49.838;8.650;2023-04-01T14:53:53;1.75;;;0.75;;
43118;SDS011;28729;49.838;8.650;2023-04-01T15:19:40;1.55;;;0.63;;
43118;SDS011;28729;49.838;8.650;2023-04-01T15:32:28;1.15;;;0.80;;
43118;SDS011;28729;49.838;8.650;2023-04-01T15:36:43;0.95;;;0.68;;
43118;SDS011;28729;49.838;8.650;2023-04-01T15:40:49;1.13;;;0.73;;
43118;SDS011;28729;49.838;8.650;2023-04-01T15:53:34;1.33;;;0.70;;
43118;SDS011;28729;49.838;8.650;2023-04-01T15:58:06;1.88;;;0.55;;
43118;SDS011;28729;49.838;8.650;2023-04-01T16:11:28;1.23;;;0.60;;
43118;SDS011;28729;49.838;8.650;2023-04-01T16:16:03;1.05;;;0.60;;
43118;SDS011;28729;49.838;8.650;2023-04-01T16:28:44;1.58;;;0.40;;
43118;SDS011;28729;49.838;8.650;2023-04-01T16:42:16;4.63;;;0.90;;
43118;SDS011;28729;49.838;8.650;2023-04-01T16:46:32;1.98;;;0.60;;
43118;SDS011;28729;49.838;8.650;2023-04-01T17:03:17;1.13;;;0.60;;
43118;SDS011;28729;49.838;8.650;2023-04-01T17:07:47;1.17;;;0.60;;
43118;SDS011;28729;49.838;8.650;2023-04-01T17:30:28;1.10;;;0.47;;
43118;SDS011;28729;49.838;8.650;2023-04-01T17:38:23;1.15;;;0.50;;
43118;SDS011;28729;49.838;8.650;2023-04-01T17:42:50;1.25;;;0.60;;
43118;SDS011;28729;49.838;8.650;2023-04-01T17:47:43;1.60;;;0.95;;
43118;SDS011;28729;49.838;8.650;2023-04-01T17:55:50;1.08;;;0.63;;
43118;SDS011;28729;49.838;8.650;2023-04-01T18:08:55;0.82;;;0.68;;
43118;SDS011;28729;49.838;8.650;2023-04-01T18:26:02;2.03;;;0.77;;
43118;SDS011;28729;49.838;8.650;2023-04-01T18:30:30;1.88;;;0.60;;
43118;SDS011;28729;49.838;8.650;2023-04-01T18:38:55;3.20;;;0.60;;
43118;SDS011;28729;49.838;8.650;2023-04-01T18:51:33;1.23;;;0.65;;
43118;SDS011;28729;49.838;8.650;2023-04-01T18:55:56;0.98;;;0.60;;
43118;SDS011;28729;49.838;8.650;2023-04-01T19:00:04;2.08;;;0.52;;
43118;SDS011;28729;49.838;8.650;2023-04-01T19:04:23;1.35;;;0.50;;
43118;SDS011;28729;49.838;8.650;2023-04-01T19:08:33;5.07;;;0.60;;
43118;SDS011;28729;49.838;8.650;2023-04-01T19:17:04;1.45;;;0.52;;
43118;SDS011;28729;49.838;8.650;2023-04-01T19:21:39;1.33;;;0.70;;
43118;SDS011;28729;49.838;8.650;2023-04-01T19:26:00;1.40;;;0.85;;
43118;SDS011;28729;49.838;8.650;2023-04-01T19:34:46;2.85;;;1.10;;
43118;SDS011;28729;49.838;8.650;2023-04-01T19:39:10;2.10;;;0.80;;
43118;SDS011;28729;49.838;8.650;2023-04-01T19:43:30;2.42;;;0.73;;
43118;SDS011;28729;49.838;8.650;2023-04-01T19:47:48;1.52;;;0.60;;
43118;SDS011;28729;49.838;8.650;2023-04-01T19:56:25;1.67;;;0.90;;
43118;SDS011;28729;49.838;8.650;2023-04-01T20:00:39;1.43;;;0.50;;
43118;SDS011;28729;49.838;8.650;2023-04-01T20:04:51;3.25;;;1.13;;
43118;SDS011;28729;49.838;8.650;2023-04-01T20:13:13;2.17;;;1.00;;
43118;SDS011;28729;49.838;8.650;2023-04-01T20:17:32;4.07;;;1.20;;
43118;SDS011;28729;49.838;8.650;2023-04-01T20:21:43;0.95;;;0.55;;
43118;SDS011;28729;49.838;8.650;2023-04-01T20:25:52;1.15;;;0.75;;
43118;SDS011;28729;49.838;8.650;2023-04-01T20:43:04;1.58;;;0.93;;
43118;SDS011;28729;49.838;8.650;2023-04-01T20:51:39;2.35;;;0.60;;
43118;SDS011;28729;49.838;8.650;2023-04-01T21:05:09;2.90;;;0.80;;
43118;SDS011;28729;49.838;8.650;2023-04-01T21:17:58;1.92;;;0.40;;
43118;SDS011;28729;49.838;8.650;2023-04-01T21:35:05;2.72;;;0.68;;
43118;SDS011;28729;49.838;8.650;2023-04-01T21:44:02;3.70;;;0.75;;
43118;SDS011;28729;49.838;8.650;2023-04-01T21:57:07;1.85;;;0.75;;
43118;SDS011;28729;49.838;8.650;2023-04-01T22:10:27;1.70;;;0.80;;
43118;SDS011;28729;49.838;8.650;2023-04-01T22:27:48;5.50;;;1.30;;
43118;SDS011;28729;49.838;8.650;2023-04-01T22:32:31;2.15;;;1.38;;
43118;SDS011;28729;49.838;8.650;2023-04-01T22:36:35;2.80;;;1.40;;
43118;SDS011;28729;49.838;8.650;2023-04-01T22:49:18;3.55;;;1.70;;
43118;SDS011;28729;49.838;8.650;2023-04-01T22:53:46;2.75;;;1.45;;
43118;SDS011;28729;49.838;8.650;2023-04-01T22:58:09;2.53;;;1.10;;
43118;SDS011;28729;49.838;8.650;2023-04-01T23:02:17;3.22;;;1.48;;
43118;SDS011;28729;49.838;8.650;2023-04-01T23:06:31;3.17;;;1.95;;
43118;SDS011;28729;49.838;8.650;2023-04-01T23:10:41;5.13;;;1.88;;
43118;SDS011;28729;49.838;8.650;2023-04-01T23:19:00;2.80;;;1.60;;
43118;SDS011;28729;49.838;8.650;2023-04-01T23:31:59;8.35;;;2.90;;
43118;SDS011;28729;49.838;8.650;2023-04-01T23:36:09;5.47;;;2.45;;
43118;SDS011;28729;49.838;8.650;2023-04-01T23:40:13;4.50;;;2.70;;
43118;SDS011;28729;49.838;8.650;2023-04-01T23:44:16;7.05;;;2.75;;
43118;SDS011;28729;49.838;8.650;2023-04-01T23:48:17;5.60;;;2.92;;
43118;SDS011;28729;49.838;8.650;2023-04-01T23:52:25;6.75;;;2.72;;
43118;SDS011;28729;49.838;8.650;2023-04-01T23:56:39;7.18;;;2.97;;
